Time;durP1;ratioP1;P1;durP2;ratioP2;P2;SDS_P1;SDS_P2;PMS_P1;PMS_P2;Temp;Humidity;BMP_temperature;BMP_pressure;BME280_temperature;BME280_humidity;BME280_pressure;Samples;Min_cycle;Max_cycle;Signal;HPM_P1;HPM_P2
2021/03/13 00:01:57;;;;;;;0.60;0.60;;;8.40;99.90;;;;;;5116776;27;20456;-81
2021/03/13 00:04:45;;;;;;;1.07;0.70;;;8.30;99.90;;;;;;5119057;27;20490;-79
2021/03/13 00:07:33;;;;;;;0.87;0.70;;;8.40;99.90;;;;;;5129171;27;20492;-81
2021/03/13 00:10:21;;;;;;;1.07;0.70;;;8.40;1.00;;;;;;5125191;27;20456;-80
2021/03/13 00:13:09;;;;;;;1.47;0.57;;;8.50;99.90;;;;;;5116436;27;20928;-82
2021/03/13 00:15:57;;;;;;;2.60;0.97;;;8.40;1.00;;;;;;5127252;27;20804;-80
2021/03/13 00:18:45;;;;;;;2.00;0.70;;;8.80;99.90;;;;;;5124882;27;20468;-80
2021/03/13 00:21:32;;;;;;;1.60;0.83;;;8.80;99.90;;;;;;5132383;27;20430;-81
2021/03/13 00:24:21;;;;;;;1.23;0.70;;;9.00;99.90;;;;;;5120766;27;21033;-84
2021/03/13 00:27:09;;;;;;;0.80;0.80;;;9.20;99.90;;;;;;5119463;27;20817;-82
2021/03/13 00:29:56;;;;;;;1.27;0.80;;;9.30;99.90;;;;;;5123266;27;20549;-81
2021/03/13 00:32:44;;;;;;;0.63;0.63;;;9.40;99.90;;;;;;5129639;27;20449;-80
2021/03/13 00:35:32;;;;;;;0.70;0.70;;;9.40;99.90;;;;;;5125279;27;20461;-83
2021/03/13 00:38:23;;;;;;;0.83;0.83;;;9.60;99.90;;;;;;5125951;27;20481;-84
2021/03/13 00:41:11;;;;;;;3.63;0.60;;;9.40;99.90;;;;;;5122470;27;20449;-82
2021/03/13 00:43:58;;;;;;;0.50;0.50;;;9.20;99.90;;;;;;5121186;27;20446;-80
2021/03/13 00:46:46;;;;;;;2.30;0.70;;;8.80;99.90;;;;;;5129265;27;20445;-82
2021/03/13 00:49:33;;;;;;;2.50;0.60;;;8.90;99.90;;;;;;5112279;27;21002;-84
2021/03/13 00:52:21;;;;;;;0.80;0.70;;;9.00;99.90;;;;;;5118609;27;20878;-81
2021/03/13 00:55:10;;;;;;;2.00;0.50;;;8.90;99.90;;;;;;5124252;27;20976;-85
2021/03/13 00:57:59;;;;;;;0.40;0.40;;;9.10;99.90;;;;;;5121078;27;20472;-83
2021/03/13 01:00:56;;;;;;;0.40;0.40;;;9.10;99.90;;;;;;5122980;27;21017;-82
2021/03/13 01:03:44;;;;;;;0.40;0.40;;;9.20;99.90;;;;;;5136862;27;20445;-81
2021/03/13 01:06:31;;;;;;;0.60;0.60;;;9.10;99.90;;;;;;5118244;27;21028;-81
2021/03/13 01:09:18;;;;;;;0.40;0.40;;;9.20;99.90;;;;;;5123457;27;20468;-81
2021/03/13 01:12:07;;;;;;;1.30;0.50;;;9.20;99.90;;;;;;5118350;27;20456;-80
2021/03/13 01:14:55;;;;;;;1.27;0.47;;;9.10;99.90;;;;;;5123223;27;20466;-81
2021/03/13 01:17:43;;;;;;;1.23;0.80;;;9.00;99.90;;;;;;5126634;27;20946;-79
2021/03/13 01:20:30;;;;;;;0.50;0.40;;;8.80;99.90;;;;;;5117705;27;21196;-82
2021/03/13 01:23:18;;;;;;;1.10;0.50;;;8.60;99.90;;;;;;5126793;27;20418;-79
2021/03/13 01:26:06;;;;;;;0.70;0.60;;;8.50;99.90;;;;;;5123343;27;20837;-82
2021/03/13 01:28:53;;;;;;;0.60;0.60;;;8.40;99.90;;;;;;5118468;27;20479;-81
2021/03/13 01:31:41;;;;;;;1.03;0.50;;;8.30;1.00;;;;;;5126465;27;20437;-79
2021/03/13 01:34:29;;;;;;;0.90;0.50;;;8.00;1.00;;;;;;5134859;27;20453;-83
2021/03/13 01:37:19;;;;;;;0.40;0.40;;;8.10;1.00;;;;;;5130793;27;20457;-80
2021/03/13 01:40:11;;;;;;;0.50;0.50;;;7.90;1.00;;;;;;5117613;27;20450;-80
2021/03/13 01:42:59;;;;;;;0.70;0.63;;;7.80;79.10;;;;;;5127238;27;20477;-82
2021/03/13 01:45:47;;;;;;;0.60;0.60;;;7.90;99.90;;;;;;5130093;27;20465;-80
2021/03/13 01:48:38;;;;;;;2.83;1.07;;;7.90;99.90;;;;;;5125606;27;20478;-83
2021/03/13 01:51:26;;;;;;;1.23;0.70;;;8.00;45.50;;;;;;5118523;28;20523;-81
2021/03/13 01:54:13;;;;;;;0.70;0.70;;;8.20;1.00;;;;;;5125277;28;20981;-80
2021/03/13 01:57:01;;;;;;;2.23;0.70;;;8.20;99.70;;;;;;5117761;28;20465;-81
2021/03/13 01:59:49;;;;;;;2.23;1.17;;;7.80;99.90;;;;;;5116850;28;20481;-82
2021/03/13 02:02:37;;;;;;;1.00;0.70;;;7.90;99.90;;;;;;5122061;28;20460;-84
2021/03/13 02:05:28;;;;;;;3.53;0.80;;;8.20;1.00;;;;;;5128317;28;20453;-80
2021/03/13 02:08:22;;;;;;;1.50;0.80;;;7.50;1.00;;;;;;5128951;28;20527;-79
2021/03/13 02:11:17;;;;;;;2.40;0.70;;;7.60;1.00;;;;;;5115088;28;20464;-82
2021/03/13 02:14:16;;;;;;;1.20;0.70;;;7.60;1.00;;;;;;5113718;28;20466;-82
2021/03/13 02:17:12;;;;;;;0.70;0.70;;;7.60;1.00;;;;;;5114703;28;20473;-81
2021/03/13 02:20:34;;;;;;;2.57;0.97;;;7.60;1.00;;;;;;5120086;28;20966;-84
2021/03/13 02:23:24;;;;;;;1.00;0.70;;;7.50;1.00;;;;;;5123487;27;20985;-83
2021/03/13 02:26:30;;;;;;;1.53;0.70;;;7.60;1.00;;;;;;5135708;27;20441;-80
2021/03/13 02:29:47;;;;;;;1.97;0.90;;;7.70;99.90;;;;;;5119792;27;20473;-82
2021/03/13 02:32:41;;;;;;;0.90;0.63;;;7.80;99.90;;;;;;5128105;27;20552;-81
2021/03/13 02:35:31;;;;;;;2.43;0.77;;;7.50;99.90;;;;;;5137369;27;20462;-82
2021/03/13 02:38:27;;;;;;;1.07;0.70;;;7.50;99.90;;;;;;5124518;27;20475;-80
2021/03/13 02:41:18;;;;;;;2.10;0.80;;;7.60;99.90;;;;;;5119881;27;20471;-83
2021/03/13 02:44:09;;;;;;;1.53;0.60;;;7.50;99.90;;;;;;5123777;27;20458;-80
2021/03/13 02:46:58;;;;;;;2.30;0.80;;;7.60;99.90;;;;;;5120880;27;20447;-85
2021/03/13 02:49:49;;;;;;;3.43;0.80;;;7.60;99.90;;;;;;5124130;27;20451;-79
2021/03/13 02:52:38;;;;;;;2.43;0.80;;;7.60;99.90;;;;;;5120458;27;20938;-81
2021/03/13 02:55:26;;;;;;;5.60;1.07;;;7.60;99.90;;;;;;5133317;27;20453;-79
2021/03/13 02:58:15;;;;;;;1.07;0.80;;;7.70;99.90;;;;;;5114456;27;20448;-81
2021/03/13 03:01:04;;;;;;;0.70;0.70;;;7.90;1.00;;;;;;5131548;27;20454;-79
2021/03/13 03:03:53;;;;;;;2.67;0.83;;;7.80;1.00;;;;;;5120507;27;20449;-81
2021/03/13 03:06:44;;;;;;;2.30;1.17;;;7.90;1.00;;;;;;5125794;27;20479;-79
2021/03/13 03:09:32;;;;;;;1.73;0.80;;;7.90;1.00;;;;;;5121973;27;20473;-83
2021/03/13 03:12:21;;;;;;;3.00;0.90;;;8.00;1.00;;;;;;5119971;27;20456;-86
2021/03/13 03:15:14;;;;;;;5.33;0.70;;;8.10;1.00;;;;;;5120032;27;21008;-80
2021/03/13 03:18:05;;;;;;;0.60;0.60;;;7.90;1.00;;;;;;5124622;27;20998;-80
2021/03/13 03:20:55;;;;;;;1.60;1.00;;;8.00;1.00;;;;;;5120302;27;20446;-80
2021/03/13 03:23:42;;;;;;;3.10;0.70;;;8.10;1.00;;;;;;5120240;27;20956;-86
2021/03/13 03:26:30;;;;;;;2.27;1.13;;;8.00;1.00;;;;;;5117929;27;20457;-79
2021/03/13 03:29:20;;;;;;;0.83;0.80;;;8.00;1.00;;;;;;5129529;27;20474;-80
2021/03/13 03:32:08;;;;;;;0.97;0.70;;;7.90;1.00;;;;;;5121027;27;20466;-80
2021/03/13 03:34:55;;;;;;;1.93;0.80;;;7.80;1.00;;;;;;5122658;27;20468;-82
2021/03/13 03:37:44;;;;;;;1.07;0.73;;;7.90;1.00;;;;;;5133594;27;20464;-82
2021/03/13 03:40:34;;;;;;;2.10;1.00;;;7.90;1.00;;;;;;5120131;27;20469;-80
2021/03/13 03:43:25;;;;;;;1.33;0.80;;;7.90;1.00;;;;;;5122289;27;20473;-84
2021/03/13 03:46:14;;;;;;;1.47;0.73;;;7.90;1.00;;;;;;5125802;27;20461;-84
2021/03/13 03:49:04;;;;;;;1.57;0.67;;;7.90;1.00;;;;;;5124147;27;20479;-79
2021/03/13 03:51:54;;;;;;;2.20;0.80;;;7.90;1.00;;;;;;5134729;27;20478;-80
2021/03/13 03:54:43;;;;;;;4.03;0.70;;;8.00;1.00;;;;;;5133892;27;20455;-84
2021/03/13 03:57:31;;;;;;;0.90;0.60;;;7.90;1.00;;;;;;5127968;27;20457;-80
2021/03/13 04:00:20;;;;;;;2.10;0.70;;;7.70;99.90;;;;;;5122434;27;20444;-83
2021/03/13 04:03:16;;;;;;;1.03;0.70;;;7.70;99.90;;;;;;5129882;27;20454;-83
2021/03/13 04:06:06;;;;;;;2.73;0.70;;;7.90;99.90;;;;;;5124867;27;21282;-83
2021/03/13 04:08:57;;;;;;;3.30;0.70;;;7.80;99.90;;;;;;5123547;27;20476;-82
2021/03/13 04:11:47;;;;;;;1.97;0.70;;;7.80;27.70;;;;;;5129310;27;20430;-81
2021/03/13 04:14:36;;;;;;;1.20;0.73;;;7.80;96.70;;;;;;5135000;27;20475;-80
2021/03/13 04:17:24;;;;;;;1.17;0.60;;;7.80;99.90;;;;;;5138382;27;20483;-79
2021/03/13 04:20:13;;;;;;;1.00;0.53;;;7.80;9.00;;;;;;5131871;27;20545;-83
2021/03/13 04:23:02;;;;;;;1.17;0.87;;;7.90;19.40;;;;;;5121021;27;20464;-83
2021/03/13 04:25:51;;;;;;;2.13;0.60;;;7.70;86.40;;;;;;5121050;27;20473;-81
2021/03/13 04:28:40;;;;;;;0.77;0.60;;;7.80;99.90;;;;;;5133814;27;20482;-83
2021/03/13 04:31:30;;;;;;;1.43;0.80;;;8.00;1.00;;;;;;5123117;27;20461;-82
2021/03/13 04:34:18;;;;;;;0.80;0.57;;;7.90;1.00;;;;;;5137248;27;20552;-80
2021/03/13 04:37:06;;;;;;;2.70;1.00;;;7.90;1.00;;;;;;5135065;27;20436;-79
2021/03/13 04:39:54;;;;;;;3.97;0.63;;;7.90;1.00;;;;;;5118110;27;20468;-80
2021/03/13 04:42:44;;;;;;;1.07;0.60;;;7.90;1.00;;;;;;5116242;27;20480;-83
2021/03/13 04:45:34;;;;;;;0.93;0.50;;;7.90;1.00;;;;;;5130583;27;20467;-82
2021/03/13 04:48:22;;;;;;;1.37;0.77;;;7.90;1.00;;;;;;5135809;27;20479;-81
2021/03/13 04:51:09;;;;;;;2.13;0.73;;;8.00;1.00;;;;;;5121460;27;20726;-83
2021/03/13 04:53:57;;;;;;;2.20;0.60;;;8.00;1.00;;;;;;5122559;27;20451;-83
2021/03/13 04:56:45;;;;;;;0.87;0.60;;;8.10;1.00;;;;;;5124323;27;20522;-82
2021/03/13 04:59:32;;;;;;;6.60;0.70;;;8.10;1.00;;;;;;5127944;27;20439;-80
2021/03/13 05:02:20;;;;;;;0.63;0.43;;;8.10;1.00;;;;;;5116041;27;20851;-80
2021/03/13 05:05:10;;;;;;;0.50;0.50;;;8.20;1.00;;;;;;5114925;27;20453;-80
2021/03/13 05:07:57;;;;;;;0.93;0.50;;;8.20;1.00;;;;;;5118474;27;20475;-81
2021/03/13 05:10:46;;;;;;;0.80;0.50;;;8.10;1.00;;;;;;5125710;27;20457;-83
2021/03/13 05:13:33;;;;;;;0.77;0.70;;;7.80;1.00;;;;;;5121415;27;20470;-80
2021/03/13 05:16:21;;;;;;;1.17;1.07;;;7.80;1.00;;;;;;5120982;27;20459;-81
2021/03/13 05:19:10;;;;;;;1.23;0.50;;;7.90;1.00;;;;;;5116267;27;20464;-80
2021/03/13 05:21:57;;;;;;;1.10;0.60;;;8.00;1.00;;;;;;5115810;27;20466;-80
2021/03/13 05:24:45;;;;;;;2.67;0.70;;;7.90;1.00;;;;;;5117244;27;20458;-82
2021/03/13 05:27:32;;;;;;;1.80;0.70;;;8.10;1.00;;;;;;5116787;27;20505;-82
2021/03/13 05:30:21;;;;;;;1.10;0.50;;;8.00;1.00;;;;;;5119688;27;20543;-79
2021/03/13 05:33:08;;;;;;;1.63;0.60;;;8.20;1.00;;;;;;5120480;27;20486;-78
2021/03/13 05:35:57;;;;;;;0.50;0.50;;;8.20;1.00;;;;;;5123480;27;22315;-83
2021/03/13 05:38:45;;;;;;;2.20;0.60;;;8.10;1.00;;;;;;5119388;27;20476;-82
2021/03/13 05:41:33;;;;;;;2.37;0.93;;;8.10;1.00;;;;;;5122494;27;20436;-79
2021/03/13 05:44:21;;;;;;;1.67;0.60;;;8.20;1.00;;;;;;5123766;27;20485;-82
2021/03/13 05:47:09;;;;;;;1.37;0.60;;;8.20;1.00;;;;;;5125818;27;20481;-84
2021/03/13 05:50:02;;;;;;;1.63;0.77;;;8.30;99.90;;;;;;5122520;27;20477;-84
2021/03/13 05:52:55;;;;;;;2.50;0.67;;;8.30;99.90;;;;;;5124693;28;20447;-85
2021/03/13 05:55:43;;;;;;;1.10;0.60;;;8.30;99.90;;;;;;5122720;28;20457;-87
2021/03/13 05:58:31;;;;;;;1.40;0.97;;;8.20;99.90;;;;;;5122427;28;20474;-85
2021/03/13 06:01:18;;;;;;;0.83;0.50;;;8.20;99.90;;;;;;5121358;28;20490;-85
2021/03/13 06:04:06;;;;;;;1.30;1.23;;;8.00;99.90;;;;;;5127686;28;20458;-84
2021/03/13 06:06:54;;;;;;;0.87;0.70;;;8.10;99.90;;;;;;5134665;28;20457;-82
2021/03/13 06:09:43;;;;;;;1.80;0.80;;;8.10;99.90;;;;;;5121223;28;20479;-84
2021/03/13 06:12:30;;;;;;;2.60;0.67;;;8.40;99.90;;;;;;5124987;28;20457;-85
2021/03/13 06:15:20;;;;;;;2.03;0.80;;;8.10;99.90;;;;;;5123711;28;22464;-84
2021/03/13 06:18:08;;;;;;;2.10;0.97;;;8.30;99.90;;;;;;5123055;28;20850;-83
2021/03/13 06:20:55;;;;;;;3.30;0.70;;;8.50;99.90;;;;;;5125256;28;20457;-86
2021/03/13 06:23:43;;;;;;;2.77;0.63;;;8.60;99.90;;;;;;5132586;28;20473;-86
2021/03/13 06:26:51;;;;;;;1.83;0.83;;;8.40;99.90;;;;;;5130869;28;20454;-82
2021/03/13 06:29:38;;;;;;;2.03;0.70;;;8.50;99.90;;;;;;5123966;28;20482;-84
2021/03/13 06:32:33;;;;;;;0.77;0.70;;;8.30;99.90;;;;;;5127781;28;20981;-85
2021/03/13 06:35:24;;;;;;;0.60;0.60;;;8.30;99.90;;;;;;5125524;28;20487;-78
2021/03/13 06:38:15;;;;;;;0.60;0.60;;;8.10;99.90;;;;;;5122426;28;20447;-82
2021/03/13 06:41:13;;;;;;;1.87;0.60;;;8.20;99.90;;;;;;5134311;28;20452;-80
2021/03/13 06:44:01;;;;;;;2.07;0.77;;;8.20;99.90;;;;;;5132868;28;20464;-80
2021/03/13 06:46:49;;;;;;;3.30;0.80;;;8.20;99.90;;;;;;5122948;28;20451;-82
2021/03/13 06:49:36;;;;;;;1.57;0.70;;;8.30;99.90;;;;;;5119158;28;20255;-83
2021/03/13 06:52:24;;;;;;;3.27;0.73;;;8.40;99.90;;;;;;5122653;28;20463;-79
2021/03/13 06:55:20;;;;;;;1.20;0.70;;;8.40;99.90;;;;;;5117563;28;20453;-83
2021/03/13 06:58:11;;;;;;;2.63;0.87;;;8.40;99.90;;;;;;5114108;28;20491;-77
2021/03/13 07:01:05;;;;;;;0.97;0.73;;;8.50;99.90;;;;;;5119654;28;20446;-79
2021/03/13 07:03:53;;;;;;;3.90;0.60;;;8.70;99.90;;;;;;5120404;28;20461;-83
2021/03/13 07:06:46;;;;;;;1.53;0.80;;;8.40;99.90;;;;;;5127979;28;20462;-78
2021/03/13 07:09:48;;;;;;;3.00;0.70;;;8.30;99.90;;;;;;5113596;27;20471;-79
2021/03/13 07:12:39;;;;;;;0.90;0.60;;;8.30;99.90;;;;;;5116145;27;20465;-78
2021/03/13 07:15:28;;;;;;;2.80;0.70;;;8.40;99.90;;;;;;5124411;27;20450;-74
2021/03/13 07:18:16;;;;;;;1.63;0.67;;;8.50;99.90;;;;;;5121630;27;20525;-76
2021/03/13 07:21:04;;;;;;;1.53;0.60;;;8.70;99.90;;;;;;5117961;27;20972;-79
2021/03/13 07:23:57;;;;;;;1.60;0.70;;;8.90;99.90;;;;;;5109389;27;20460;-77
2021/03/13 07:26:46;;;;;;;1.17;1.07;;;8.80;99.90;;;;;;5109706;27;20483;-77
2021/03/13 07:29:34;;;;;;;1.60;0.70;;;8.70;99.90;;;;;;5115617;27;20476;-78
2021/03/13 07:32:25;;;;;;;1.30;0.90;;;8.80;99.90;;;;;;5115167;27;20446;-78
2021/03/13 07:35:16;;;;;;;0.83;0.63;;;8.80;99.90;;;;;;5115616;27;20469;-78
2021/03/13 07:38:05;;;;;;;4.30;0.87;;;8.70;99.90;;;;;;5121149;27;20480;-78
2021/03/13 07:40:54;;;;;;;1.70;0.60;;;8.70;99.90;;;;;;5120724;27;20461;-78
2021/03/13 07:43:42;;;;;;;0.60;0.60;;;8.70;99.90;;;;;;5122267;27;20543;-77
2021/03/13 07:46:31;;;;;;;1.43;0.70;;;8.80;99.90;;;;;;5123802;27;20445;-78
2021/03/13 07:49:20;;;;;;;1.53;0.70;;;8.80;99.90;;;;;;5116701;27;21011;-81
2021/03/13 07:52:10;;;;;;;5.23;0.63;;;8.90;99.90;;;;;;5125393;27;20484;-78
2021/03/13 07:55:00;;;;;;;5.13;0.70;;;9.00;99.90;;;;;;5124275;27;20535;-80
2021/03/13 07:57:50;;;;;;;0.73;0.70;;;9.00;99.90;;;;;;5116660;27;20453;-78
2021/03/13 08:00:42;;;;;;;1.13;0.60;;;9.00;99.90;;;;;;5121366;27;20210;-78
2021/03/13 08:03:40;;;;;;;3.57;0.73;;;8.90;99.90;;;;;;5127095;27;20458;-80
2021/03/13 08:06:49;;;;;;;0.80;0.60;;;9.00;99.90;;;;;;5130619;27;21228;-79
2021/03/13 08:09:43;;;;;;;1.17;0.63;;;9.00;99.90;;;;;;5122951;27;20485;-78
2021/03/13 08:12:41;;;;;;;2.58;1.90;;;9.10;99.90;;;;;;5122251;27;21122;-78
2021/03/13 08:15:46;;;;;;;2.33;0.70;;;9.20;99.90;;;;;;5125832;27;20274;-79
2021/03/13 08:18:41;;;;;;;1.47;0.67;;;9.20;99.90;;;;;;5133730;27;20444;-78
2021/03/13 08:21:42;;;;;;;0.87;0.70;;;9.30;99.90;;;;;;5121929;27;20466;-78
2021/03/13 08:24:40;;;;;;;0.60;0.60;;;9.10;99.90;;;;;;5141449;27;20956;-79
2021/03/13 08:27:39;;;;;;;1.63;0.60;;;9.20;99.90;;;;;;5127340;27;20503;-80
2021/03/13 08:30:28;;;;;;;1.47;0.60;;;9.40;99.90;;;;;;5121727;27;20470;-80
2021/03/13 08:33:26;;;;;;;1.47;0.60;;;9.50;99.90;;;;;;5120786;27;20467;-73
2021/03/13 08:36:16;;;;;;;1.20;0.60;;;9.90;99.90;;;;;;5118725;27;20446;-79
2021/03/13 08:39:06;;;;;;;1.50;0.60;;;10.10;99.90;;;;;;5123128;27;20561;-79
2021/03/13 08:41:55;;;;;;;0.87;0.60;;;10.40;99.90;;;;;;5125853;27;20455;-70
2021/03/13 08:44:44;;;;;;;3.00;0.50;;;10.70;99.90;;;;;;5120308;27;20961;-71
2021/03/13 08:47:41;;;;;;;2.87;0.73;;;10.80;99.90;;;;;;5113734;27;20416;-80
2021/03/13 08:50:52;;;;;;;0.80;0.80;;;10.70;99.90;;;;;;5117681;27;20501;-80
2021/03/13 08:53:41;;;;;;;1.37;0.60;;;10.40;99.90;;;;;;5123980;27;20470;-80
2021/03/13 08:56:37;;;;;;;4.67;1.70;;;10.20;99.90;;;;;;5123001;27;20971;-78
2021/03/13 08:59:25;;;;;;;0.63;0.50;;;10.10;99.90;;;;;;5122281;27;20468;-78
2021/03/13 09:02:15;;;;;;;1.87;0.70;;;10.20;99.90;;;;;;5119642;27;20436;-79
2021/03/13 09:05:05;;;;;;;0.60;0.60;;;10.10;99.90;;;;;;5128042;27;20857;-79
2021/03/13 09:07:55;;;;;;;0.60;0.60;;;10.20;99.90;;;;;;5119465;27;20474;-78
2021/03/13 09:10:43;;;;;;;1.07;0.50;;;10.30;99.90;;;;;;5118136;27;20599;-78
2021/03/13 09:13:30;;;;;;;0.60;0.60;;;10.40;99.90;;;;;;5127992;27;20798;-77
2021/03/13 09:16:18;;;;;;;1.30;0.70;;;10.40;99.90;;;;;;5127532;27;20471;-78
2021/03/13 09:19:13;;;;;;;1.73;0.67;;;10.40;99.90;;;;;;5120915;27;20471;-79
2021/03/13 09:22:05;;;;;;;2.57;0.60;;;10.40;99.90;;;;;;5112515;27;20457;-73
2021/03/13 09:24:54;;;;;;;1.33;0.70;;;10.60;99.90;;;;;;5119636;27;20547;-76
2021/03/13 09:27:43;;;;;;;2.67;0.60;;;10.80;99.90;;;;;;5115150;27;20557;-79
2021/03/13 09:30:35;;;;;;;0.50;0.50;;;10.80;99.90;;;;;;5116725;27;20470;-78
2021/03/13 09:33:22;;;;;;;0.70;0.50;;;10.70;99.90;;;;;;5116346;27;20817;-79
2021/03/13 09:36:12;;;;;;;0.70;0.57;;;10.70;99.90;;;;;;5130268;27;20953;-78
2021/03/13 09:38:59;;;;;;;3.60;0.60;;;10.70;99.90;;;;;;5112905;27;20467;-78
2021/03/13 09:42:05;;;;;;;0.50;0.50;;;10.90;99.90;;;;;;5111249;27;20461;-77
2021/03/13 09:44:54;;;;;;;1.87;0.60;;;10.80;99.90;;;;;;5117110;27;20506;-78
2021/03/13 09:47:44;;;;;;;0.73;0.50;;;10.90;99.90;;;;;;5124492;27;21038;-79
2021/03/13 09:50:34;;;;;;;0.93;0.60;;;10.80;99.90;;;;;;5111577;27;20477;-78
2021/03/13 09:53:23;;;;;;;5.03;0.90;;;10.80;99.90;;;;;;5122387;27;20556;-77
2021/03/13 09:56:11;;;;;;;1.70;0.53;;;10.90;99.90;;;;;;5122134;28;20465;-78
2021/03/13 09:58:59;;;;;;;1.20;0.57;;;10.80;99.90;;;;;;5126872;28;20458;-79
2021/03/13 10:01:47;;;;;;;0.60;0.50;;;10.60;99.90;;;;;;5121852;27;21162;-79
2021/03/13 10:04:35;;;;;;;0.70;0.50;;;10.50;99.90;;;;;;5121722;27;20460;-79
2021/03/13 10:07:30;;;;;;;0.60;0.50;;;10.60;99.90;;;;;;5120773;28;21098;-78
2021/03/13 10:10:20;;;;;;;0.43;0.43;;;10.50;99.90;;;;;;5120166;28;20473;-76
2021/03/13 10:13:08;;;;;;;1.50;0.50;;;10.40;99.90;;;;;;5120290;28;20471;-77
2021/03/13 10:15:56;;;;;;;0.70;0.60;;;10.40;99.90;;;;;;5112146;28;20438;-78
2021/03/13 10:18:44;;;;;;;0.70;0.50;;;10.40;99.90;;;;;;5114365;28;20667;-77
2021/03/13 10:21:31;;;;;;;1.27;0.60;;;10.40;99.90;;;;;;5121691;28;20424;-77
2021/03/13 10:24:19;;;;;;;1.13;0.63;;;10.40;99.90;;;;;;5117716;28;20873;-77
2021/03/13 10:27:07;;;;;;;2.67;0.60;;;10.40;99.90;;;;;;5111915;28;20435;-76
2021/03/13 10:30:01;;;;;;;1.70;0.60;;;10.50;99.90;;;;;;5122937;28;20483;-77
2021/03/13 10:32:49;;;;;;;2.70;0.70;;;10.40;99.90;;;;;;5115955;27;20464;-75
2021/03/13 10:35:37;;;;;;;1.43;0.60;;;10.20;99.90;;;;;;5123913;27;20448;-75
2021/03/13 10:38:25;;;;;;;1.37;0.50;;;10.20;99.90;;;;;;5110151;27;20950;-76
2021/03/13 10:41:14;;;;;;;0.70;0.47;;;9.90;99.90;;;;;;5129549;27;20458;-77
2021/03/13 10:44:03;;;;;;;1.60;0.50;;;10.00;99.90;;;;;;5115342;27;21284;-75
2021/03/13 10:46:52;;;;;;;2.27;0.60;;;10.10;99.90;;;;;;5138546;27;20452;-75
2021/03/13 10:49:40;;;;;;;2.40;0.60;;;10.10;99.90;;;;;;5119308;27;20481;-76
2021/03/13 10:52:28;;;;;;;1.70;0.80;;;10.00;99.90;;;;;;5127742;27;20457;-78
2021/03/13 10:55:16;;;;;;;0.60;0.60;;;10.20;99.90;;;;;;5129278;27;21042;-76
2021/03/13 10:58:04;;;;;;;0.97;0.70;;;10.10;99.90;;;;;;5130723;27;20498;-75
2021/03/13 11:00:52;;;;;;;0.73;0.60;;;10.40;99.90;;;;;;5124487;27;20510;-75
2021/03/13 11:03:42;;;;;;;1.00;0.57;;;10.00;99.90;;;;;;5129826;27;20478;-76
2021/03/13 11:06:32;;;;;;;0.97;0.60;;;10.20;99.90;;;;;;5129407;27;20478;-76
2021/03/13 11:09:20;;;;;;;1.17;0.50;;;10.30;99.90;;;;;;5129076;27;20532;-76
2021/03/13 11:12:08;;;;;;;2.20;0.60;;;10.30;99.80;;;;;;5123280;27;20472;-78
2021/03/13 11:14:55;;;;;;;2.20;0.63;;;10.40;99.90;;;;;;5121904;27;21076;-76
2021/03/13 11:17:44;;;;;;;0.97;0.53;;;10.40;97.90;;;;;;5118949;27;20479;-77
2021/03/13 11:20:32;;;;;;;1.17;1.07;;;10.30;96.70;;;;;;5121909;27;21162;-76
2021/03/13 11:23:20;;;;;;;1.03;0.60;;;10.30;97.60;;;;;;5117084;27;20436;-77
2021/03/13 11:26:09;;;;;;;1.90;0.70;;;10.40;98.20;;;;;;5124961;27;20953;-76
2021/03/13 11:28:57;;;;;;;1.27;0.50;;;10.50;99.60;;;;;;5122632;27;20478;-75
2021/03/13 11:31:45;;;;;;;0.80;0.60;;;10.50;97.50;;;;;;5118143;27;20478;-76
2021/03/13 11:34:34;;;;;;;1.67;0.50;;;10.60;99.80;;;;;;5117757;27;20457;-76
2021/03/13 11:37:21;;;;;;;0.40;0.40;;;10.70;97.90;;;;;;5120098;27;21089;-77
2021/03/13 11:40:10;;;;;;;0.50;0.50;;;10.50;96.60;;;;;;5129785;27;20459;-77
2021/03/13 11:43:00;;;;;;;2.70;0.70;;;10.50;96.30;;;;;;5113577;27;20465;-77
2021/03/13 11:45:47;;;;;;;2.30;1.13;;;10.60;97.40;;;;;;5125228;27;20466;-77
2021/03/13 11:48:35;;;;;;;1.27;0.70;;;10.70;96.60;;;;;;5108688;27;20613;-77
2021/03/13 11:51:23;;;;;;;2.57;0.60;;;10.70;97.00;;;;;;5109464;27;20975;-73
2021/03/13 11:54:11;;;;;;;0.50;0.50;;;10.70;97.00;;;;;;5115389;27;20448;-77
2021/03/13 11:56:58;;;;;;;1.27;0.80;;;10.60;96.70;;;;;;5126599;27;20459;-76
2021/03/13 11:59:47;;;;;;;0.57;0.57;;;10.70;96.80;;;;;;5121831;27;20289;-76
2021/03/13 12:02:34;;;;;;;0.50;0.50;;;10.90;96.40;;;;;;5120465;27;20453;-77
2021/03/13 12:05:22;;;;;;;0.53;0.50;;;10.80;96.70;;;;;;5119620;27;20563;-77
2021/03/13 12:08:11;;;;;;;0.77;0.50;;;10.70;96.70;;;;;;5117616;27;20853;-77
2021/03/13 12:10:58;;;;;;;0.40;0.40;;;10.50;99.90;;;;;;5128334;27;20469;-77
2021/03/13 12:13:46;;;;;;;0.50;0.50;;;10.50;99.90;;;;;;5126943;27;20451;-77
2021/03/13 12:16:33;;;;;;;0.47;0.43;;;10.50;99.90;;;;;;5121980;27;20446;-77
2021/03/13 12:19:21;;;;;;;0.57;0.50;;;10.50;99.90;;;;;;5113489;27;20807;-77
2021/03/13 12:22:09;;;;;;;0.40;0.40;;;10.50;99.90;;;;;;5122575;27;20211;-77
2021/03/13 12:24:58;;;;;;;1.00;0.60;;;10.60;99.90;;;;;;5124363;27;22376;-77
2021/03/13 12:27:45;;;;;;;0.50;0.50;;;10.30;99.90;;;;;;5118833;27;20483;-76
2021/03/13 12:30:33;;;;;;;0.60;0.60;;;10.30;99.90;;;;;;5115504;27;20480;-75
2021/03/13 12:33:21;;;;;;;1.60;0.60;;;10.40;99.90;;;;;;5124270;27;21237;-75
2021/03/13 12:36:09;;;;;;;0.40;0.40;;;9.70;99.90;;;;;;5116607;27;20448;-76
2021/03/13 12:38:57;;;;;;;1.23;0.57;;;10.20;99.90;;;;;;5115100;27;20510;-77
2021/03/13 12:41:46;;;;;;;0.67;0.60;;;10.30;99.90;;;;;;5116860;27;20444;-76
2021/03/13 12:44:33;;;;;;;0.50;0.50;;;10.40;99.90;;;;;;5114769;27;20989;-77
2021/03/13 12:47:21;;;;;;;0.70;0.70;;;10.30;99.90;;;;;;5120624;27;20477;-75
2021/03/13 12:50:09;;;;;;;0.90;0.60;;;10.10;99.90;;;;;;5116331;27;20515;-74
2021/03/13 12:52:57;;;;;;;0.57;0.50;;;10.30;99.90;;;;;;5127545;27;20442;-76
2021/03/13 12:55:44;;;;;;;0.90;0.60;;;10.40;99.90;;;;;;5118562;27;20456;-77
2021/03/13 12:58:33;;;;;;;1.03;0.63;;;10.50;99.90;;;;;;5116789;27;20849;-76
2021/03/13 13:01:20;;;;;;;4.13;0.60;;;10.30;99.90;;;;;;5123239;27;20438;-77
2021/03/13 13:04:08;;;;;;;0.80;0.60;;;10.30;99.90;;;;;;5120769;27;20734;-76
2021/03/13 13:06:55;;;;;;;0.73;0.50;;;10.10;99.90;;;;;;5125086;27;20806;-77
2021/03/13 13:09:58;;;;;;;1.03;0.53;;;10.30;99.90;;;;;;5120285;27;20984;-75
2021/03/13 13:12:45;;;;;;;0.50;0.50;;;10.50;99.90;;;;;;5128323;27;20946;-75
2021/03/13 13:15:34;;;;;;;0.40;0.40;;;10.70;99.90;;;;;;5117090;27;20449;-75
2021/03/13 13:18:23;;;;;;;0.87;0.50;;;10.30;99.90;;;;;;5115975;27;20462;-75
2021/03/13 13:21:10;;;;;;;1.70;0.40;;;10.00;99.90;;;;;;5113622;27;20439;-76
2021/03/13 13:23:59;;;;;;;1.03;0.60;;;9.80;99.90;;;;;;5117210;27;20446;-78
2021/03/13 13:26:48;;;;;;;1.27;0.50;;;9.90;99.90;;;;;;5119776;27;20455;-75
2021/03/13 13:29:35;;;;;;;1.00;0.70;;;9.60;99.90;;;;;;5120166;27;20467;-75
2021/03/13 13:32:25;;;;;;;1.43;0.50;;;9.60;99.90;;;;;;5116012;27;20528;-76
2021/03/13 13:35:14;;;;;;;0.60;0.60;;;9.40;99.90;;;;;;5113618;27;20951;-76
2021/03/13 13:38:02;;;;;;;0.50;0.40;;;9.30;99.90;;;;;;5113793;27;20464;-77
2021/03/13 13:40:49;;;;;;;0.50;0.50;;;9.10;99.90;;;;;;5128160;27;20450;-79
2021/03/13 13:43:37;;;;;;;0.40;0.40;;;9.20;99.90;;;;;;5124845;27;20481;-77
2021/03/13 13:46:24;;;;;;;0.40;0.40;;;9.10;99.90;;;;;;5114223;27;20461;-78
2021/03/13 13:49:13;;;;;;;0.50;0.40;;;9.10;99.90;;;;;;5118846;27;20481;-77
2021/03/13 13:52:01;;;;;;;0.40;0.40;;;9.10;99.90;;;;;;5118529;27;20458;-79
2021/03/13 13:54:48;;;;;;;0.30;0.30;;;9.20;99.90;;;;;;5115701;27;20456;-77
2021/03/13 13:57:36;;;;;;;0.40;0.40;;;9.30;99.90;;;;;;5114984;27;20470;-78
2021/03/13 14:00:26;;;;;;;1.23;0.70;;;9.00;99.90;;;;;;5119030;28;20805;-77
2021/03/13 14:03:14;;;;;;;0.97;0.60;;;8.90;99.90;;;;;;5124596;28;20453;-77
2021/03/13 14:06:02;;;;;;;0.40;0.40;;;9.20;99.90;;;;;;5115818;27;20471;-76
2021/03/13 14:08:50;;;;;;;0.50;0.50;;;9.00;99.90;;;;;;5113978;28;20464;-76
2021/03/13 14:11:38;;;;;;;0.40;0.40;;;9.10;99.90;;;;;;5115274;28;20459;-78
2021/03/13 14:14:25;;;;;;;0.30;0.30;;;8.80;99.90;;;;;;5120178;28;20989;-76
2021/03/13 14:17:13;;;;;;;0.40;0.40;;;8.70;99.90;;;;;;5117796;27;20517;-73
2021/03/13 14:20:01;;;;;;;0.50;0.50;;;8.90;99.90;;;;;;5121801;27;20997;-74
2021/03/13 14:22:50;;;;;;;0.60;0.60;;;9.00;99.90;;;;;;5129585;27;20218;-77
2021/03/13 14:25:38;;;;;;;0.50;0.50;;;9.00;99.90;;;;;;5121994;27;20519;-78
2021/03/13 14:28:25;;;;;;;1.17;0.47;;;9.00;99.90;;;;;;5119284;27;20482;-76
2021/03/13 14:31:13;;;;;;;0.40;0.40;;;9.10;99.90;;;;;;5116818;27;20477;-75
2021/03/13 14:34:01;;;;;;;0.50;0.50;;;8.90;99.90;;;;;;5115687;27;20433;-73
2021/03/13 14:36:50;;;;;;;0.40;0.40;;;8.90;99.90;;;;;;5125138;27;21001;-76
2021/03/13 14:39:38;;;;;;;0.50;0.50;;;8.90;99.90;;;;;;5123296;27;21097;-75
2021/03/13 14:42:26;;;;;;;0.40;0.40;;;8.80;99.90;;;;;;5131088;27;20435;-76
2021/03/13 14:45:16;;;;;;;1.13;0.50;;;8.50;99.90;;;;;;5118647;27;20458;-76
2021/03/13 14:48:04;;;;;;;0.60;0.40;;;8.30;99.90;;;;;;5119072;27;20484;-77
2021/03/13 14:50:52;;;;;;;0.40;0.40;;;8.10;99.90;;;;;;5114133;27;20995;-75
2021/03/13 14:53:39;;;;;;;0.40;0.40;;;8.00;99.90;;;;;;5121613;27;20460;-76